sensor_id;sensor_type;location;lat;lon;timestamp;pressure;altitude;pressure_sealevel;temperature;humidity
8477;BME280;4275;42.854;23.222;2024-01-07T00:00:50;38989.03;;;-141.02;100.00
8477;BME280;4275;42.854;23.222;2024-01-07T00:03:18;38958.38;;;-141.02;100.00
8477;BME280;4275;42.854;23.222;2024-01-07T00:05:45;38998.63;;;-141.02;100.00
8477;BME280;4275;42.854;23.222;2024-01-07T00:08:13;38990.97;;;-141.02;100.00
8477;BME280;4275;42.854;23.222;2024-01-07T00:10:40;39027.41;;;-141.02;100.00
8477;BME280;4275;42.854;23.222;2024-01-07T00:13:06;39052.31;;;-141.02;100.00
8477;BME280;4275;42.854;23.222;2024-01-07T00:15:33;39052.31;;;-141.02;100.00
8477;BME280;4275;42.854;23.222;2024-01-07T00:18:00;39048.50;;;-141.02;100.00
8477;BME280;4275;42.854;23.222;2024-01-07T00:20:29;39046.56;;;-141.02;100.00
8477;BME280;4275;42.854;23.222;2024-01-07T00:22:56;39098.34;;;-141.02;100.00
8477;BME280;4275;42.854;23.222;2024-01-07T00:25:23;39086.84;;;-141.02;100.00
8477;BME280;4275;42.854;23.222;2024-01-07T00:27:50;39138.63;;;-141.02;100.00
8477;BME280;4275;42.854;23.222;2024-01-07T00:30:21;39198.06;;;-141.02;100.00
8477;BME280;4275;42.854;23.222;2024-01-07T00:32:48;39153.97;;;-141.02;100.00
8477;BME280;4275;42.854;23.222;2024-01-07T00:35:16;39188.47;;;-141.02;100.00
8477;BME280;4275;42.854;23.222;2024-01-07T00:37:45;39255.59;;;-141.02;100.00
8477;BME280;4275;42.854;23.222;2024-01-07T00:40:12;39228.75;;;-141.02;100.00
8477;BME280;4275;42.854;23.222;2024-01-07T00:42:39;39234.50;;;-141.02;100.00
8477;BME280;4275;42.854;23.222;2024-01-07T00:45:07;39240.25;;;-141.02;100.00
8477;BME280;4275;42.854;23.222;2024-01-07T00:47:35;39251.75;;;-141.02;100.00
8477;BME280;4275;42.854;23.222;2024-01-07T00:50:02;39293.94;;;-141.02;100.00
8477;BME280;4275;42.854;23.222;2024-01-07T00:52:29;39293.94;;;-141.02;100.00
8477;BME280;4275;42.854;23.222;2024-01-07T00:54:58;39247.91;;;-141.02;100.00
8477;BME280;4275;42.854;23.222;2024-01-07T00:57:25;39286.28;;;-141.02;100.00
8477;BME280;4275;42.854;23.222;2024-01-07T00:59:52;39284.34;;;-141.02;100.00
8477;BME280;4275;42.854;23.222;2024-01-07T01:02:19;39301.63;;;-141.02;100.00
8477;BME280;4275;42.854;23.222;2024-01-07T01:04:47;39305.44;;;-141.02;100.00
8477;BME280;4275;42.854;23.222;2024-01-07T01:07:16;39301.63;;;-141.02;100.00
8477;BME280;4275;42.854;23.222;2024-01-07T01:09:43;39311.22;;;-141.02;100.00
8477;BME280;4275;42.854;23.222;2024-01-07T01:12:11;39320.78;;;-141.02;100.00
8477;BME280;4275;42.854;23.222;2024-01-07T01:14:38;39301.63;;;-141.02;100.00
8477;BME280;4275;42.854;23.222;2024-01-07T01:17:05;39274.78;;;-141.02;100.00
8477;BME280;4275;42.854;23.222;2024-01-07T01:19:32;39293.94;;;-141.02;100.00
8477;BME280;4275;42.854;23.222;2024-01-07T01:21:59;39290.13;;;-141.02;100.00
8477;BME280;4275;42.854;23.222;2024-01-07T01:24:26;39251.75;;;-141.02;100.00
8477;BME280;4275;42.854;23.222;2024-01-07T01:26:53;39265.19;;;-141.02;100.00
8477;BME280;4275;42.854;23.222;2024-01-07T01:29:21;39284.34;;;-141.02;100.00
8477;BME280;4275;42.854;23.222;2024-01-07T01:31:48;39290.13;;;-141.02;100.00
8477;BME280;4275;42.854;23.222;2024-01-07T01:34:15;39288.19;;;-141.02;100.00
8477;BME280;4275;42.854;23.222;2024-01-07T01:36:42;39274.78;;;-141.02;100.00
8477;BME280;4275;42.854;23.222;2024-01-07T01:39:09;39284.34;;;-141.02;100.00
8477;BME280;4275;42.854;23.222;2024-01-07T01:41:36;39320.78;;;-141.02;100.00
8477;BME280;4275;42.854;23.222;2024-01-07T01:44:03;39332.31;;;-141.02;100.00
8477;BME280;4275;42.854;23.222;2024-01-07T01:46:32;39313.13;;;-141.02;100.00
8477;BME280;4275;42.854;23.222;2024-01-07T01:48:59;39343.81;;;-141.02;100.00
8477;BME280;4275;42.854;23.222;2024-01-07T01:51:26;39318.88;;;-141.02;100.00
8477;BME280;4275;42.854;23.222;2024-01-07T01:53:54;39343.81;;;-141.02;100.00
8477;BME280;4275;42.854;23.222;2024-01-07T01:56:26;39332.31;;;-141.02;100.00
8477;BME280;4275;42.854;23.222;2024-01-07T01:58:54;39326.56;;;-141.02;100.00
8477;BME280;4275;42.854;23.222;2024-01-07T02:01:22;39424.34;;;-141.02;100.00
8477;BME280;4275;42.854;23.222;2024-01-07T02:03:51;39391.75;;;-141.02;100.00
8477;BME280;4275;42.854;23.222;2024-01-07T02:06:19;39428.19;;;-141.02;100.00
8477;BME280;4275;42.854;23.222;2024-01-07T02:08:47;39393.66;;;-141.02;100.00
8477;BME280;4275;42.854;23.222;2024-01-07T02:11:16;39397.50;;;-141.02;100.00
8477;BME280;4275;42.854;23.222;2024-01-07T02:13:43;39386.00;;;-141.02;100.00
8477;BME280;4275;42.854;23.222;2024-01-07T02:16:10;39410.94;;;-141.02;100.00
8477;BME280;4275;42.854;23.222;2024-01-07T02:18:41;39428.19;;;-141.02;100.00
8477;BME280;4275;42.854;23.222;2024-01-07T02:21:11;39376.41;;;-141.02;100.00
8477;BME280;4275;42.854;23.222;2024-01-07T02:23:39;39403.25;;;-141.02;100.00
8477;BME280;4275;42.854;23.222;2024-01-07T02:26:07;39435.88;;;-141.02;100.00
8477;BME280;4275;42.854;23.222;2024-01-07T02:28:34;39428.19;;;-141.02;100.00
8477;BME280;4275;42.854;23.222;2024-01-07T02:31:01;39395.59;;;-141.02;100.00
8477;BME280;4275;42.854;23.222;2024-01-07T02:33:28;39424.34;;;-141.02;100.00
8477;BME280;4275;42.854;23.222;2024-01-07T02:35:56;39397.50;;;-141.02;100.00
8477;BME280;4275;42.854;23.222;2024-01-07T02:38:23;39393.66;;;-141.02;100.00
8477;BME280;4275;42.854;23.222;2024-01-07T02:40:51;39424.34;;;-141.02;100.00
8477;BME280;4275;42.854;23.222;2024-01-07T02:43:20;39432.03;;;-141.02;100.00
8477;BME280;4275;42.854;23.222;2024-01-07T02:45:47;39432.03;;;-141.02;100.00
8477;BME280;4275;42.854;23.222;2024-01-07T02:48:13;39466.53;;;-141.02;100.00
8477;BME280;4275;42.854;23.222;2024-01-07T02:50:41;39481.88;;;-141.02;100.00
8477;BME280;4275;42.854;23.222;2024-01-07T02:53:07;39485.72;;;-141.02;100.00
8477;BME280;4275;42.854;23.222;2024-01-07T02:55:36;39439.69;;;-141.02;100.00
8477;BME280;4275;42.854;23.222;2024-01-07T02:58:03;39516.41;;;-141.02;100.00
8477;BME280;4275;42.854;23.222;2024-01-07T03:00:31;39547.09;;;-141.02;100.00
8477;BME280;4275;42.854;23.222;2024-01-07T03:02:58;39554.78;;;-141.02;100.00
8477;BME280;4275;42.854;23.222;2024-01-07T03:05:25;39593.13;;;-141.02;100.00
8477;BME280;4275;42.854;23.222;2024-01-07T03:07:54;39593.13;;;-141.02;100.00
8477;BME280;4275;42.854;23.222;2024-01-07T03:10:21;39643.00;;;-141.02;100.00
8477;BME280;4275;42.854;23.222;2024-01-07T03:12:48;39677.50;;;-141.02;100.00
8477;BME280;4275;42.854;23.222;2024-01-07T03:15:15;39673.69;;;-141.02;100.00
8477;BME280;4275;42.854;23.222;2024-01-07T03:17:44;39708.19;;;-141.02;100.00
8477;BME280;4275;42.854;23.222;2024-01-07T03:20:11;39646.81;;;-141.02;100.00
8477;BME280;4275;42.854;23.222;2024-01-07T03:22:38;39790.69;;;-141.02;100.00
8477;BME280;4275;42.854;23.222;2024-01-07T03:25:06;39723.53;;;-141.02;100.00
8477;BME280;4275;42.854;23.222;2024-01-07T03:27:33;39758.06;;;-141.02;100.00
8477;BME280;4275;42.854;23.222;2024-01-07T03:30:00;39727.38;;;-141.02;100.00
8477;BME280;4275;42.854;23.222;2024-01-07T03:32:27;39731.22;;;-141.02;100.00
8477;BME280;4275;42.854;23.222;2024-01-07T03:34:56;39355.31;;;-141.02;100.00
8477;BME280;4275;42.854;23.222;2024-01-07T03:37:23;39175.06;;;-141.02;100.00
8477;BME280;4275;42.854;23.222;2024-01-07T03:39:50;39086.84;;;-141.02;100.00
8477;BME280;4275;42.854;23.222;2024-01-07T03:42:17;39052.31;;;-141.02;100.00
8477;BME280;4275;42.854;23.222;2024-01-07T03:44:44;39017.81;;;-141.02;100.00
8477;BME280;4275;42.854;23.222;2024-01-07T03:47:11;39086.84;;;-141.02;100.00
8477;BME280;4275;42.854;23.222;2024-01-07T03:49:38;39194.22;;;-141.02;100.00
8477;BME280;4275;42.854;23.222;2024-01-07T03:52:07;39412.84;;;-141.02;100.00
8477;BME280;4275;42.854;23.222;2024-01-07T03:54:34;39650.66;;;-141.02;100.00
8477;BME280;4275;42.854;23.222;2024-01-07T03:57:01;39986.31;;;-141.02;100.00
8477;BME280;4275;42.854;23.222;2024-01-07T03:59:28;40475.47;;;-141.02;100.00
8477;BME280;4275;42.854;23.222;2024-01-07T04:01:56;41187.28;;;-141.02;100.00
8477;BME280;4275;42.854;23.222;2024-01-07T04:04:23;42056.59;;;-141.02;100.00
8477;BME280;4275;42.854;23.222;2024-01-07T04:06:50;42912.72;;;-141.02;100.00
8477;BME280;4275;42.854;23.222;2024-01-07T04:09:18;44210.75;;;-141.02;100.00
8477;BME280;4275;42.854;23.222;2024-01-07T04:11:46;45113.53;;;-141.02;100.00
8477;BME280;4275;42.854;23.222;2024-01-07T04:14:14;46062.66;;;-141.02;100.00
8477;BME280;4275;42.854;23.222;2024-01-07T04:16:41;47156.22;;;-141.02;100.00
8477;BME280;4275;42.854;23.222;2024-01-07T04:19:07;48586.66;;;-141.02;100.00
8477;BME280;4275;42.854;23.222;2024-01-07T04:21:34;50535.25;;;-141.02;100.00
8477;BME280;4275;42.854;23.222;2024-01-07T04:24:02;52600.47;;;-141.02;100.00
8477;BME280;4275;42.854;23.222;2024-01-07T04:26:30;55225.69;;;-141.02;100.00
8477;BME280;4275;42.854;23.222;2024-01-07T04:28:57;57500.06;;;-141.02;100.00
8477;BME280;4275;42.854;23.222;2024-01-07T04:31:24;59721.97;;;-141.02;100.00
8477;BME280;4275;42.854;23.222;2024-01-07T04:33:51;61945.31;;;-141.02;100.00
8477;BME280;4275;42.854;23.222;2024-01-07T04:36:18;62933.94;;;-141.02;100.00
8477;BME280;4275;42.854;23.222;2024-01-07T04:38:45;63922.84;;;-141.02;100.00
8477;BME280;4275;42.854;23.222;2024-01-07T04:41:12;64417.41;;;-141.02;100.00
8477;BME280;4275;42.854;23.222;2024-01-07T04:43:42;65159.41;;;-141.02;100.00
8477;BME280;4275;42.854;23.222;2024-01-07T04:46:10;66148.94;;;-141.02;100.00
8477;BME280;4275;42.854;23.222;2024-01-07T04:48:37;66891.31;;;-141.02;100.00
8477;BME280;4275;42.854;23.222;2024-01-07T04:51:04;67633.81;;;-141.02;100.00
8477;BME280;4275;42.854;23.222;2024-01-07T04:53:31;67633.81;;;-141.02;100.00
8477;BME280;4275;42.854;23.222;2024-01-07T04:55:58;67633.81;;;-141.02;100.00
8477;BME280;4275;42.854;23.222;2024-01-07T04:58:25;67386.28;;;-141.02;100.00
8477;BME280;4275;42.854;23.222;2024-01-07T05:00:54;66891.31;;;-141.02;100.00
8477;BME280;4275;42.854;23.222;2024-01-07T05:03:21;66396.38;;;-141.02;100.00
8477;BME280;4275;42.854;23.222;2024-01-07T05:05:48;65901.53;;;-141.02;100.00
8477;BME280;4275;42.854;23.222;2024-01-07T05:08:15;64912.06;;;-141.02;100.00
8477;BME280;4275;42.854;23.222;2024-01-07T05:10:42;63675.59;;;-141.02;100.00
8477;BME280;4275;42.854;23.222;2024-01-07T05:13:08;62686.75;;;-141.02;100.00
8477;BME280;4275;42.854;23.222;2024-01-07T05:15:36;62192.44;;;-141.02;100.00
8477;BME280;4275;42.854;23.222;2024-01-07T05:18:07;61698.22;;;-141.02;100.00
8477;BME280;4275;42.854;23.222;2024-01-07T05:20:34;61451.13;;;-141.02;100.00
8477;BME280;4275;42.854;23.222;2024-01-07T05:23:01;61698.22;;;-141.02;100.00
8477;BME280;4275;42.854;23.222;2024-01-07T05:25:28;62192.44;;;-141.02;100.00
8477;BME280;4275;42.854;23.222;2024-01-07T05:27:55;63181.16;;;-141.02;100.00
8477;BME280;4275;42.854;23.222;2024-01-07T05:30:22;63675.59;;;-141.02;100.00
8477;BME280;4275;42.854;23.222;2024-01-07T05:32:49;64170.13;;;-141.02;100.00
8477;BME280;4275;42.854;23.222;2024-01-07T05:35:18;64664.72;;;-141.02;100.00
8477;BME280;4275;42.854;23.222;2024-01-07T05:37:45;65159.41;;;-141.02;100.00
8477;BME280;4275;42.854;23.222;2024-01-07T05:40:12;65406.75;;;-141.02;100.00
8477;BME280;4275;42.854;23.222;2024-01-07T05:42:39;65901.53;;;-141.02;100.00
8477;BME280;4275;42.854;23.222;2024-01-07T05:45:07;66396.38;;;-141.02;100.00
8477;BME280;4275;42.854;23.222;2024-01-07T05:47:34;67138.78;;;-141.02;100.00
8477;BME280;4275;42.854;23.222;2024-01-07T05:50:01;67386.28;;;-141.02;100.00
8477;BME280;4275;42.854;23.222;2024-01-07T05:52:29;67633.81;;;-141.02;100.00
8477;BME280;4275;42.854;23.222;2024-01-07T05:54:56;67633.81;;;-141.02;100.00
8477;BME280;4275;42.854;23.222;2024-01-07T05:57:23;67881.38;;;-141.02;100.00
8477;BME280;4275;42.854;23.222;2024-01-07T05:59:50;67881.38;;;-141.02;100.00
8477;BME280;4275;42.854;23.222;2024-01-07T06:02:18;68128.91;;;-141.02;100.00
8477;BME280;4275;42.854;23.222;2024-01-07T06:04:45;68128.91;;;-141.02;100.00
8477;BME280;4275;42.854;23.222;2024-01-07T06:07:11;67881.38;;;-141.02;100.00
8477;BME280;4275;42.854;23.222;2024-01-07T06:09:40;67138.78;;;-141.02;100.00
8477;BME280;4275;42.854;23.222;2024-01-07T06:12:07;65159.41;;;-141.02;100.00
8477;BME280;4275;42.854;23.222;2024-01-07T06:14:34;63181.16;;;-141.02;100.00
8477;BME280;4275;42.854;23.222;2024-01-07T06:17:01;62439.59;;;-141.02;100.00
8477;BME280;4275;42.854;23.222;2024-01-07T06:19:30;62439.59;;;-141.02;100.00
8477;BME280;4275;42.854;23.222;2024-01-07T06:21:57;62439.59;;;-141.02;100.00
8477;BME280;4275;42.854;23.222;2024-01-07T06:24:23;60957.00;;;-141.02;100.00
8477;BME280;4275;42.854;23.222;2024-01-07T06:26:52;57006.53;;;-141.02;100.00
8477;BME280;4275;42.854;23.222;2024-01-07T06:29:19;52113.41;;;-141.02;100.00
8477;BME280;4275;42.854;23.222;2024-01-07T06:31:46;51997.91;;;-141.02;100.00
8477;BME280;4275;42.854;23.222;2024-01-07T06:34:14;52665.94;;;-141.02;100.00
8477;BME280;4275;42.854;23.222;2024-01-07T06:36:41;51695.69;;;-141.02;100.00
8477;BME280;4275;42.854;23.222;2024-01-07T06:39:08;50265.88;;;-141.02;100.00
8477;BME280;4275;42.854;23.222;2024-01-07T06:41:34;50856.59;;;-141.02;100.00
8477;BME280;4275;42.854;23.222;2024-01-07T06:44:03;48603.97;;;-141.02;100.00
8477;BME280;4275;42.854;23.222;2024-01-07T06:46:30;48000.19;;;-141.02;100.00
8477;BME280;4275;42.854;23.222;2024-01-07T06:48:57;48503.97;;;-141.02;100.00
8477;BME280;4275;42.854;23.222;2024-01-07T06:51:24;48577.03;;;-141.02;100.00
8477;BME280;4275;42.854;23.222;2024-01-07T06:53:51;49342.47;;;-141.02;100.00
8477;BME280;4275;42.854;23.222;2024-01-07T06:56:18;49846.47;;;-141.02;100.00
8477;BME280;4275;42.854;23.222;2024-01-07T06:58:45;51158.72;;;-141.02;100.00
8477;BME280;4275;42.854;23.222;2024-01-07T07:01:13;51520.53;;;-141.02;100.00
8477;BME280;4275;42.854;23.222;2024-01-07T07:03:44;50823.88;;;-141.02;100.00
8477;BME280;4275;42.854;23.222;2024-01-07T07:06:11;50997.06;;;-141.02;100.00
8477;BME280;4275;42.854;23.222;2024-01-07T07:08:38;51770.75;;;-141.02;100.00
8477;BME280;4275;42.854;23.222;2024-01-07T07:11:05;50377.47;;;-141.02;100.00
8477;BME280;4275;42.854;23.222;2024-01-07T07:13:32;50188.91;;;-141.02;100.00
8477;BME280;4275;42.854;23.222;2024-01-07T07:15:59;50648.75;;;-141.02;100.00
8477;BME280;4275;42.854;23.222;2024-01-07T07:18:27;50415.94;;;-141.02;100.00
8477;BME280;4275;42.854;23.222;2024-01-07T07:20:54;48238.59;;;-141.02;100.00
8477;BME280;4275;42.854;23.222;2024-01-07T07:23:21;48184.75;;;-141.02;100.00
8477;BME280;4275;42.854;23.222;2024-01-07T07:25:48;47588.75;;;-141.02;100.00
8477;BME280;4275;42.854;23.222;2024-01-07T07:28:15;47771.38;;;-141.02;100.00
8477;BME280;4275;42.854;23.222;2024-01-07T07:30:42;48830.88;;;-141.02;100.00
8477;BME280;4275;42.854;23.222;2024-01-07T07:33:10;48540.50;;;-141.02;100.00
8477;BME280;4275;42.854;23.222;2024-01-07T07:35:38;48750.13;;;-141.02;100.00
8477;BME280;4275;42.854;23.222;2024-01-07T07:38:07;48369.34;;;-141.02;100.00
8477;BME280;4275;42.854;23.222;2024-01-07T07:40:34;47444.56;;;-141.02;100.00
8477;BME280;4275;42.854;23.222;2024-01-07T07:43:01;46733.38;;;-141.02;100.00
8477;BME280;4275;42.854;23.222;2024-01-07T07:45:28;46685.31;;;-141.02;100.00
8477;BME280;4275;42.854;23.222;2024-01-07T07:47:56;46470.06;;;-141.02;100.00
8477;BME280;4275;42.854;23.222;2024-01-07T07:50:22;46737.22;;;-141.02;100.00
8477;BME280;4275;42.854;23.222;2024-01-07T07:52:51;46654.56;;;-141.02;100.00
8477;BME280;4275;42.854;23.222;2024-01-07T07:55:19;46681.47;;;-141.02;100.00
8477;BME280;4275;42.854;23.222;2024-01-07T07:57:46;46662.25;;;-141.02;100.00
8477;BME280;4275;42.854;23.222;2024-01-07T08:00:13;46746.81;;;-141.02;100.00
8477;BME280;4275;42.854;23.222;2024-01-07T08:02:41;46762.19;;;-141.02;100.00
8477;BME280;4275;42.854;23.222;2024-01-07T08:05:08;47092.78;;;-141.02;100.00
8477;BME280;4275;42.854;23.222;2024-01-07T08:07:35;46819.84;;;-141.02;100.00
8477;BME280;4275;42.854;23.222;2024-01-07T08:10:05;46927.50;;;-141.02;100.00
8477;BME280;4275;42.854;23.222;2024-01-07T08:12:33;47023.59;;;-141.02;100.00
8477;BME280;4275;42.854;23.222;2024-01-07T08:15:00;47550.31;;;-141.02;100.00
8477;BME280;4275;42.854;23.222;2024-01-07T08:17:28;47242.72;;;-141.02;100.00
8477;BME280;4275;42.854;23.222;2024-01-07T08:19:55;46654.56;;;-141.02;100.00
8477;BME280;4275;42.854;23.222;2024-01-07T08:22:22;46500.81;;;-141.02;100.00
8477;BME280;4275;42.854;23.222;2024-01-07T08:24:49;46443.16;;;-141.02;100.00
8477;BME280;4275;42.854;23.222;2024-01-07T08:27:18;46420.09;;;-141.02;100.00
8477;BME280;4275;42.854;23.222;2024-01-07T08:29:45;46381.66;;;-141.02;100.00
8477;BME280;4275;42.854;23.222;2024-01-07T08:32:12;46604.59;;;-141.02;100.00
8477;BME280;4275;42.854;23.222;2024-01-07T08:34:39;46177.97;;;-141.02;100.00
8477;BME280;4275;42.854;23.222;2024-01-07T08:37:07;45947.38;;;-141.02;100.00
8477;BME280;4275;42.854;23.222;2024-01-07T08:39:34;46562.31;;;-141.02;100.00
8477;BME280;4275;42.854;23.222;2024-01-07T08:42:01;47115.84;;;-141.02;100.00
8477;BME280;4275;42.854;23.222;2024-01-07T08:44:31;47165.84;;;-141.02;100.00
8477;BME280;4275;42.854;23.222;2024-01-07T08:46:58;47231.19;;;-141.02;100.00
8477;BME280;4275;42.854;23.222;2024-01-07T08:49:27;47461.88;;;-141.02;100.00
8477;BME280;4275;42.854;23.222;2024-01-07T08:51:54;47581.06;;;-141.02;100.00
8477;BME280;4275;42.854;23.222;2024-01-07T08:54:21;47369.59;;;-141.02;100.00
8477;BME280;4275;42.854;23.222;2024-01-07T08:56:48;48219.38;;;-141.02;100.00
8477;BME280;4275;42.854;23.222;2024-01-07T08:59:16;47819.44;;;-141.02;100.00
8477;BME280;4275;42.854;23.222;2024-01-07T09:01:44;47504.16;;;-141.02;100.00
8477;BME280;4275;42.854;23.222;2024-01-07T09:04:10;47729.09;;;-141.02;100.00
8477;BME280;4275;42.854;23.222;2024-01-07T09:06:37;47458.03;;;-141.02;100.00
8477;BME280;4275;42.854;23.222;2024-01-07T09:09:04;47254.25;;;-141.02;100.00
8477;BME280;4275;42.854;23.222;2024-01-07T09:11:32;47211.97;;;-141.02;100.00
8477;BME280;4275;42.854;23.222;2024-01-07T09:13:59;47054.34;;;-141.02;100.00
8477;BME280;4275;42.854;23.222;2024-01-07T09:16:26;46869.81;;;-141.02;100.00
8477;BME280;4275;42.854;23.222;2024-01-07T09:18:55;46902.50;;;-141.02;100.00
8477;BME280;4275;42.854;23.222;2024-01-07T09:21:22;47088.94;;;-141.02;100.00
8477;BME280;4275;42.854;23.222;2024-01-07T09:23:49;47261.94;;;-141.02;100.00
8477;BME280;4275;42.854;23.222;2024-01-07T09:26:16;46885.19;;;-141.02;100.00
8477;BME280;4275;42.854;23.222;2024-01-07T09:28:44;47285.00;;;-141.02;100.00
8477;BME280;4275;42.854;23.222;2024-01-07T09:31:11;47013.97;;;-141.02;100.00
8477;BME280;4275;42.854;23.222;2024-01-07T09:33:38;47177.38;;;-141.02;100.00
8477;BME280;4275;42.854;23.222;2024-01-07T09:36:07;47346.53;;;-141.02;100.00
8477;BME280;4275;42.854;23.222;2024-01-07T09:38:34;47000.53;;;-141.02;100.00
8477;BME280;4275;42.854;23.222;2024-01-07T09:41:01;46573.84;;;-141.02;100.00
8477;BME280;4275;42.854;23.222;2024-01-07T09:43:28;46447.00;;;-141.02;100.00
8477;BME280;4275;42.854;23.222;2024-01-07T09:45:56;46349.00;;;-141.02;100.00
8477;BME280;4275;42.854;23.222;2024-01-07T09:48:24;46783.34;;;-141.02;100.00
8477;BME280;4275;42.854;23.222;2024-01-07T09:50:52;46716.06;;;-141.02;100.00
8477;BME280;4275;42.854;23.222;2024-01-07T09:53:20;46370.13;;;-141.02;100.00
8477;BME280;4275;42.854;23.222;2024-01-07T09:55:56;46358.59;;;-141.02;100.00
8477;BME280;4275;42.854;23.222;2024-01-07T09:58:28;46687.22;;;-141.02;100.00
8477;BME280;4275;42.854;23.222;2024-01-07T10:00:55;46170.28;;;-141.02;100.00
8477;BME280;4275;42.854;23.222;2024-01-07T10:03:22;45935.84;;;-141.02;100.00
8477;BME280;4275;42.854;23.222;2024-01-07T10:05:50;46397.03;;;-141.02;100.00
8477;BME280;4275;42.854;23.222;2024-01-07T10:08:17;45490.06;;;-141.02;100.00
8477;BME280;4275;42.854;23.222;2024-01-07T10:10:45;45887.81;;;-141.02;100.00
8477;BME280;4275;42.854;23.222;2024-01-07T10:13:12;45559.25;;;-141.02;100.00
8477;BME280;4275;42.854;23.222;2024-01-07T10:15:39;46358.59;;;-141.02;100.00
8477;BME280;4275;42.854;23.222;2024-01-07T10:18:06;45616.88;;;-141.02;100.00
8477;BME280;4275;42.854;23.222;2024-01-07T10:20:34;45294.13;;;-141.02;100.00
8477;BME280;4275;42.854;23.222;2024-01-07T10:23:01;44740.88;;;-141.02;100.00
8477;BME280;4275;42.854;23.222;2024-01-07T10:25:30;44921.44;;;-141.02;100.00
8477;BME280;4275;42.854;23.222;2024-01-07T10:28:00;44863.81;;;-141.02;100.00
8477;BME280;4275;42.854;23.222;2024-01-07T10:30:28;45090.47;;;-141.02;100.00
8477;BME280;4275;42.854;23.222;2024-01-07T10:32:58;44523.81;;;-141.02;100.00
8477;BME280;4275;42.854;23.222;2024-01-07T10:35:28;44581.44;;;-141.02;100.00
8477;BME280;4275;42.854;23.222;2024-01-07T10:37:56;45374.81;;;-141.02;100.00
8477;BME280;4275;42.854;23.222;2024-01-07T10:40:23;45251.84;;;-141.02;100.00
8477;BME280;4275;42.854;23.222;2024-01-07T10:42:52;45536.19;;;-141.02;100.00
8477;BME280;4275;42.854;23.222;2024-01-07T10:45:22;44533.41;;;-141.02;100.00
8477;BME280;4275;42.854;23.222;2024-01-07T10:47:50;44510.38;;;-141.02;100.00
8477;BME280;4275;42.854;23.222;2024-01-07T10:50:18;45013.63;;;-141.02;100.00
8477;BME280;4275;42.854;23.222;2024-01-07T10:52:49;45584.22;;;-141.02;100.00
8477;BME280;4275;42.854;23.222;2024-01-07T10:55:18;45165.41;;;-141.02;100.00
8477;BME280;4275;42.854;23.222;2024-01-07T10:57:47;44379.78;;;-141.02;99.36
8477;BME280;4275;42.854;23.222;2024-01-07T11:00:16;44018.72;;;-141.02;99.68
8477;BME280;4275;42.854;23.222;2024-01-07T11:02:54;43876.59;;;-141.02;100.00
8477;BME280;4275;42.854;23.222;2024-01-07T11:05:29;43911.16;;;-141.02;100.00
8477;BME280;4275;42.854;23.222;2024-01-07T11:08:04;43863.16;;;-141.02;100.00
8477;BME280;4275;42.854;23.222;2024-01-07T11:10:38;43557.84;;;-141.02;100.00
8477;BME280;4275;42.854;23.222;2024-01-07T11:13:06;43834.34;;;-141.02;98.26
8477;BME280;4275;42.854;23.222;2024-01-07T11:15:52;43680.72;;;-141.02;100.00
8477;BME280;4275;42.854;23.222;2024-01-07T11:18:22;43853.56;;;-141.02;100.00
8477;BME280;4275;42.854;23.222;2024-01-07T11:20:49;43304.38;;;-141.02;96.03
8477;BME280;4275;42.854;23.222;2024-01-07T11:23:26;43300.56;;;-141.02;96.55
8477;BME280;4275;42.854;23.222;2024-01-07T11:25:56;43250.63;;;-141.02;97.23
8477;BME280;4275;42.854;23.222;2024-01-07T11:28:44;43536.72;;;-141.02;99.91
8477;BME280;4275;42.854;23.222;2024-01-07T11:31:11;43749.88;;;-141.02;100.00
8477;BME280;4275;42.854;23.222;2024-01-07T11:33:41;44108.97;;;-141.02;96.26
8477;BME280;4275;42.854;23.222;2024-01-07T11:36:11;43945.72;;;-141.02;96.34
8477;BME280;4275;42.854;23.222;2024-01-07T11:38:40;44356.72;;;-141.02;96.96
8477;BME280;4275;42.854;23.222;2024-01-07T11:41:09;45336.38;;;-141.02;96.29
8477;BME280;4275;42.854;23.222;2024-01-07T11:43:37;43465.66;;;-141.02;87.22
8477;BME280;4275;42.854;23.222;2024-01-07T11:46:04;43461.84;;;-141.02;92.14
8477;BME280;4275;42.854;23.222;2024-01-07T11:48:31;42931.94;;;-141.02;91.24
8477;BME280;4275;42.854;23.222;2024-01-07T11:51:00;42655.47;;;-141.02;97.83
8477;BME280;4275;42.854;23.222;2024-01-07T11:53:27;42217.84;;;-141.02;94.77
8477;BME280;4275;42.854;23.222;2024-01-07T11:55:54;42119.94;;;-141.02;95.55
8477;BME280;4275;42.854;23.222;2024-01-07T11:58:21;42118.03;;;-141.02;99.76
8477;BME280;4275;42.854;23.222;2024-01-07T12:00:48;41999.03;;;-141.02;100.00
8477;BME280;4275;42.854;23.222;2024-01-07T12:03:15;41893.47;;;-141.02;100.00
8477;BME280;4275;42.854;23.222;2024-01-07T12:05:42;41855.09;;;-141.02;100.00
8477;BME280;4275;42.854;23.222;2024-01-07T12:08:11;41807.09;;;-141.02;100.00
8477;BME280;4275;42.854;23.222;2024-01-07T12:10:38;41701.56;;;-141.02;100.00
8477;BME280;4275;42.854;23.222;2024-01-07T12:13:05;41482.78;;;-141.02;100.00
8477;BME280;4275;42.854;23.222;2024-01-07T12:15:34;41565.31;;;-141.02;100.00
8477;BME280;4275;42.854;23.222;2024-01-07T12:18:01;41592.16;;;-141.02;100.00
8477;BME280;4275;42.854;23.222;2024-01-07T12:20:28;41557.63;;;-141.02;100.00
8477;BME280;4275;42.854;23.222;2024-01-07T12:22:56;41668.94;;;-141.02;100.00
8477;BME280;4275;42.854;23.222;2024-01-07T12:25:26;41599.84;;;-141.02;100.00
8477;BME280;4275;42.854;23.222;2024-01-07T12:27:53;41454.00;;;-141.02;100.00
8477;BME280;4275;42.854;23.222;2024-01-07T12:30:20;41361.91;;;-141.02;100.00
8477;BME280;4275;42.854;23.222;2024-01-07T12:32:47;41342.69;;;-141.02;100.00
8477;BME280;4275;42.854;23.222;2024-01-07T12:35:15;41404.09;;;-141.02;100.00
8477;BME280;4275;42.854;23.222;2024-01-07T12:37:43;41425.22;;;-141.02;100.00
8477;BME280;4275;42.854;23.222;2024-01-07T12:40:11;41396.44;;;-141.02;100.00
8477;BME280;4275;42.854;23.222;2024-01-07T12:42:41;41411.78;;;-141.02;100.00